createdAt,value
2019-05-12T00:00:43.333Z,6.10
2019-05-12T00:03:32.519Z,6.10
2019-05-12T00:06:21.275Z,6.10
2019-05-12T00:09:09.924Z,6.10
2019-05-12T00:11:59.502Z,6.10
2019-05-12T00:14:48.870Z,6.00
2019-05-12T00:17:38.795Z,6.00
2019-05-12T00:20:28.438Z,6.00
2019-05-12T00:23:24.973Z,5.90
2019-05-12T00:26:08.784Z,5.90
2019-05-12T00:28:58.877Z,5.80
2019-05-12T00:31:48.312Z,5.80
2019-05-12T00:34:38.552Z,5.80
2019-05-12T00:37:28.921Z,5.80
2019-05-12T00:40:19.120Z,5.70
2019-05-12T00:43:09.712Z,5.80
2019-05-12T00:45:58.819Z,5.70
2019-05-12T00:48:48.383Z,5.70
2019-05-12T00:51:38.464Z,5.60
2019-05-12T00:54:28.547Z,5.50
2019-05-12T00:57:18.465Z,5.50
2019-05-12T01:00:11.794Z,5.50
2019-05-12T01:03:01.302Z,5.50
2019-05-12T01:05:50.362Z,5.40
2019-05-12T01:08:39.637Z,5.40
2019-05-12T01:11:28.800Z,5.30
2019-05-12T01:14:18.671Z,5.30
2019-05-12T01:17:08.466Z,5.20
2019-05-12T01:19:58.545Z,5.20
2019-05-12T01:22:50.328Z,5.20
2019-05-12T01:25:39.549Z,5.20
2019-05-12T01:28:28.731Z,5.10
2019-05-12T01:31:19.414Z,5.00
2019-05-12T01:34:08.615Z,5.00
2019-05-12T01:36:59.117Z,5.00
2019-05-12T01:39:49.219Z,5.00
2019-05-12T01:42:39.070Z,5.00
2019-05-12T01:45:28.893Z,5.00
2019-05-12T01:48:18.830Z,5.00
2019-05-12T01:51:08.483Z,5.00
2019-05-12T01:54:10.590Z,5.00
2019-05-12T01:56:49.066Z,5.00
2019-05-12T01:59:38.228Z,4.90
2019-05-12T02:02:28.578Z,4.90
2019-05-12T02:05:18.425Z,5.00
2019-05-12T02:08:09.715Z,4.90
2019-05-12T02:11:18.263Z,4.90
2019-05-12T02:14:09.208Z,4.90
2019-05-12T02:16:58.904Z,4.90
2019-05-12T02:19:48.348Z,4.90
2019-05-12T02:22:38.779Z,4.90
2019-05-12T02:25:28.946Z,4.90
2019-05-12T02:28:18.086Z,4.90
2019-05-12T02:31:09.478Z,4.90
2019-05-12T02:33:57.780Z,4.80
2019-05-12T02:36:46.895Z,4.90
2019-05-12T02:39:36.310Z,4.80
2019-05-12T02:42:26.016Z,4.80
2019-05-12T02:45:15.802Z,4.80
2019-05-12T02:48:05.703Z,4.80
2019-05-12T02:50:54.771Z,4.80
2019-05-12T02:53:47.049Z,4.80
2019-05-12T02:56:36.701Z,4.80
2019-05-12T02:59:26.329Z,4.80
2019-05-12T03:02:17.313Z,4.80
2019-05-12T03:05:10.787Z,4.80
2019-05-12T03:08:04.902Z,4.70
2019-05-12T03:10:55.155Z,4.80
2019-05-12T03:13:44.957Z,4.80
2019-05-12T03:16:35.034Z,4.80
2019-05-12T03:19:25.444Z,4.80
2019-05-12T03:22:14.937Z,4.80
2019-05-12T03:25:15.446Z,4.80
2019-05-12T03:27:55.254Z,4.80
2019-05-12T03:30:48.264Z,4.80
2019-05-12T03:33:43.118Z,4.90
2019-05-12T03:36:32.535Z,4.90
2019-05-12T03:39:17.694Z,4.90
2019-05-12T03:42:06.791Z,4.90
2019-05-12T03:44:56.349Z,4.90
2019-05-12T03:47:45.741Z,5.00
2019-05-12T03:50:36.145Z,5.10
2019-05-12T03:53:26.299Z,5.00
2019-05-12T03:56:15.796Z,5.10
2019-05-12T03:59:05.607Z,5.10
2019-05-12T04:01:55.240Z,5.20
2019-05-12T04:04:45.439Z,5.20
2019-05-12T04:07:34.780Z,5.20
2019-05-12T04:10:24.743Z,5.30
2019-05-12T04:13:15.341Z,5.30
2019-05-12T04:16:05.356Z,5.40
2019-05-12T04:18:55.156Z,5.40
2019-05-12T04:21:44.987Z,5.50
2019-05-12T04:24:35.840Z,5.60
2019-05-12T04:27:25.478Z,5.60
2019-05-12T04:30:15.453Z,5.70
2019-05-12T04:33:05.331Z,5.80
2019-05-12T04:35:55.470Z,5.80
2019-05-12T04:38:45.552Z,5.90
2019-05-12T04:41:35.632Z,6.00
2019-05-12T04:44:25.411Z,6.10
2019-05-12T04:47:15.026Z,6.10
2019-05-12T04:50:05.317Z,6.20
2019-05-12T04:52:55.163Z,6.30
2019-05-12T04:55:44.888Z,6.40
2019-05-12T04:58:35.170Z,6.60
2019-05-12T05:01:25.513Z,6.70
2019-05-12T05:04:15.461Z,6.90
2019-05-12T05:07:05.227Z,7.90
2019-05-12T05:09:55.021Z,11.10
2019-05-12T05:12:45.096Z,13.50
2019-05-12T05:15:35.030Z,14.80
2019-05-12T05:18:24.078Z,16.10
2019-05-12T05:21:13.880Z,17.30
2019-05-12T05:24:03.778Z,17.50
2019-05-12T05:26:53.942Z,17.70
2019-05-12T05:29:43.767Z,18.10
2019-05-12T05:32:33.891Z,18.10
2019-05-12T05:35:23.840Z,17.80
2019-05-12T05:38:19.132Z,17.60
2019-05-12T05:41:10.263Z,17.10
2019-05-12T05:43:58.425Z,17.90
2019-05-12T05:46:50.030Z,17.30
2019-05-12T05:49:37.468Z,17.50
2019-05-12T05:52:33.120Z,17.60
2019-05-12T05:55:20.174Z,18.40
2019-05-12T05:58:10.092Z,18.00
2019-05-12T06:01:03.105Z,17.80
2019-05-12T06:03:45.417Z,17.40
2019-05-12T06:06:34.361Z,18.10
2019-05-12T06:09:23.558Z,17.80
2019-05-12T06:12:13.420Z,17.60
2019-05-12T06:15:04.017Z,17.20
2019-05-12T06:17:53.514Z,17.50
2019-05-12T06:20:43.598Z,17.50
2019-05-12T06:23:34.927Z,16.90
2019-05-12T06:26:27.243Z,17.40
2019-05-12T06:29:11.232Z,17.40
2019-05-12T06:32:08.735Z,16.80
2019-05-12T06:34:50.886Z,16.60
2019-05-12T06:37:39.438Z,15.80
2019-05-12T06:40:30.814Z,16.10
2019-05-12T06:43:18.003Z,15.50
2019-05-12T06:46:05.917Z,15.50
2019-05-12T06:48:54.462Z,15.70
2019-05-12T06:51:44.480Z,16.00
2019-05-12T06:54:33.619Z,15.90
2019-05-12T06:57:28.379Z,16.10
2019-05-12T07:00:14.593Z,16.80
2019-05-12T07:03:04.187Z,17.10
2019-05-12T07:05:53.350Z,16.60
2019-05-12T07:08:43.684Z,16.80
2019-05-12T07:11:42.515Z,17.00
2019-05-12T07:14:26.897Z,17.60
2019-05-12T07:17:26.215Z,17.40
2019-05-12T07:20:15.897Z,17.70
2019-05-12T07:23:04.895Z,17.80
2019-05-12T07:25:54.980Z,17.80
2019-05-12T07:28:44.537Z,17.70
2019-05-12T07:31:34.408Z,17.80
2019-05-12T07:34:24.051Z,17.60
2019-05-12T07:37:15.339Z,17.20
2019-05-12T07:40:07.130Z,17.20
2019-05-12T07:42:58.872Z,16.90
2019-05-12T07:45:56.226Z,16.70
2019-05-12T07:48:40.272Z,16.60
2019-05-12T07:51:30.525Z,16.70
2019-05-12T07:54:20.756Z,16.70
2019-05-12T07:57:12.582Z,16.70
2019-05-12T08:00:03.076Z,16.40
2019-05-12T08:02:51.095Z,15.20
2019-05-12T08:05:40.791Z,14.80
2019-05-12T08:08:29.957Z,14.60
2019-05-12T08:11:19.034Z,14.00
2019-05-12T08:14:13.810Z,13.80
2019-05-12T08:17:01.954Z,13.60
2019-05-12T08:19:49.393Z,13.60
2019-05-12T08:22:40.878Z,13.60
2019-05-12T08:25:28.977Z,13.40
2019-05-12T08:28:19.252Z,13.50
2019-05-12T08:31:08.321Z,13.70
2019-05-12T08:33:57.247Z,13.60
2019-05-12T08:36:53.253Z,13.60
2019-05-12T08:39:38.938Z,13.50
2019-05-12T08:42:28.363Z,13.50
2019-05-12T08:45:25.693Z,13.60
2019-05-12T08:48:19.244Z,13.90
2019-05-12T08:50:59.040Z,13.70
2019-05-12T08:53:48.002Z,13.70
2019-05-12T08:56:37.679Z,13.70
2019-05-12T08:59:27.382Z,13.70
2019-05-12T09:02:17.045Z,13.80
2019-05-12T09:05:07.446Z,13.70
2019-05-12T09:07:56.992Z,14.10
2019-05-12T09:10:46.597Z,14.00
2019-05-12T09:13:35.653Z,13.90
2019-05-12T09:16:25.507Z,13.90
2019-05-12T09:19:16.660Z,14.10
2019-05-12T09:22:16.119Z,14.30
2019-05-12T09:24:58.363Z,14.20
2019-05-12T09:27:49.479Z,14.30
2019-05-12T09:30:40.038Z,14.40
2019-05-12T09:33:31.869Z,14.40
2019-05-12T09:36:20.078Z,14.30
2019-05-12T09:39:09.416Z,14.40
2019-05-12T09:41:58.993Z,14.40
2019-05-12T09:44:48.196Z,14.70
2019-05-12T09:47:37.434Z,14.60
2019-05-12T09:50:27.003Z,14.60
2019-05-12T09:53:16.099Z,14.90
2019-05-12T09:56:05.544Z,14.90
2019-05-12T09:59:01.522Z,14.90
2019-05-12T10:01:46.154Z,14.90
2019-05-12T10:04:35.545Z,15.00
2019-05-12T10:07:26.308Z,15.30
2019-05-12T10:10:17.111Z,15.10
2019-05-12T10:13:06.107Z,14.80
2019-05-12T10:15:58.782Z,14.90
2019-05-12T10:18:51.381Z,15.00
2019-05-12T10:21:36.655Z,14.90
2019-05-12T10:24:25.862Z,14.80
2019-05-12T10:27:14.887Z,15.20
2019-05-12T10:30:12.250Z,15.00
2019-05-12T10:32:57.006Z,15.30
2019-05-12T10:35:46.684Z,15.40
2019-05-12T10:38:36.105Z,15.20
2019-05-12T10:41:25.433Z,15.20
2019-05-12T10:44:15.292Z,14.80
2019-05-12T10:47:06.236Z,14.60
2019-05-12T10:49:55.161Z,14.90
2019-05-12T10:52:44.551Z,15.50
2019-05-12T10:55:34.111Z,15.40
2019-05-12T10:58:24.902Z,15.20
2019-05-12T11:01:14.003Z,15.40
2019-05-12T11:04:03.991Z,15.50
2019-05-12T11:06:53.954Z,15.60
2019-05-12T11:09:43.917Z,15.60
2019-05-12T11:12:33.555Z,15.10
2019-05-12T11:15:24.495Z,14.90
2019-05-12T11:18:14.530Z,14.60
2019-05-12T11:21:03.741Z,14.40
2019-05-12T11:23:54.432Z,14.00
2019-05-12T11:26:44.022Z,14.00
2019-05-12T11:29:45.675Z,14.10
2019-05-12T11:32:28.661Z,14.30
2019-05-12T11:35:14.448Z,14.70
2019-05-12T11:38:04.571Z,14.80
2019-05-12T11:40:54.109Z,15.00
2019-05-12T11:43:43.611Z,15.40
2019-05-12T11:46:36.196Z,15.30
2019-05-12T11:49:26.361Z,15.30
2019-05-12T11:52:16.727Z,15.00
2019-05-12T11:55:01.135Z,14.80
2019-05-12T11:57:48.927Z,14.40
2019-05-12T12:00:38.524Z,14.70
2019-05-12T12:03:27.018Z,14.60
2019-05-12T12:06:15.205Z,14.40
2019-05-12T12:09:09.138Z,14.70
2019-05-12T12:12:02.251Z,14.80
2019-05-12T12:14:50.419Z,15.20
2019-05-12T12:17:36.690Z,15.00
2019-05-12T12:20:24.544Z,15.00
2019-05-12T12:23:14.115Z,15.30
2019-05-12T12:26:04.014Z,15.30
2019-05-12T12:28:53.822Z,15.40
2019-05-12T12:31:52.239Z,15.50
2019-05-12T12:34:40.193Z,15.60
2019-05-12T12:37:28.425Z,15.40
2019-05-12T12:40:17.319Z,15.10
2019-05-12T12:43:05.938Z,15.00
2019-05-12T12:46:01.130Z,15.20
2019-05-12T12:48:49.536Z,15.40
2019-05-12T12:51:39.553Z,15.30
2019-05-12T12:54:27.823Z,14.90
2019-05-12T12:57:19.031Z,14.80
2019-05-12T13:00:07.916Z,14.70
2019-05-12T13:02:56.565Z,14.50
2019-05-12T13:05:44.970Z,14.50
2019-05-12T13:08:34.248Z,14.60
2019-05-12T13:11:33.169Z,15.00
2019-05-12T13:14:13.540Z,14.90
2019-05-12T13:17:01.779Z,14.90
2019-05-12T13:19:56.781Z,15.00
2019-05-12T13:22:40.012Z,15.10
2019-05-12T13:25:28.429Z,14.70
2019-05-12T13:28:19.067Z,14.70
2019-05-12T13:31:11.689Z,14.50
2019-05-12T13:33:56.627Z,14.30
2019-05-12T13:36:45.663Z,14.50
2019-05-12T13:39:34.829Z,14.40
2019-05-12T13:42:24.201Z,14.50
2019-05-12T13:45:16.299Z,14.50
2019-05-12T13:48:09.745Z,14.60
2019-05-12T13:51:07.704Z,14.60
2019-05-12T13:53:50.184Z,14.40
2019-05-12T13:56:38.044Z,14.50
2019-05-12T13:59:27.160Z,14.00
2019-05-12T14:02:22.120Z,13.80
2019-05-12T14:05:11.511Z,14.00
2019-05-12T14:07:58.553Z,14.00
2019-05-12T14:10:53.831Z,14.20
2019-05-12T14:13:39.037Z,14.40
2019-05-12T14:16:28.108Z,14.50
2019-05-12T14:19:17.675Z,14.60
2019-05-12T14:22:14.147Z,14.80
2019-05-12T14:25:01.949Z,14.80
2019-05-12T14:27:49.071Z,14.70
2019-05-12T14:30:41.176Z,14.80
2019-05-12T14:33:29.775Z,14.90
2019-05-12T14:36:22.030Z,14.50
2019-05-12T14:39:10.477Z,14.50
2019-05-12T14:41:59.280Z,14.70
2019-05-12T14:44:49.836Z,14.80
2019-05-12T14:47:39.020Z,14.80
2019-05-12T14:50:26.887Z,14.80
2019-05-12T14:53:14.857Z,14.80
2019-05-12T14:56:03.900Z,14.80
2019-05-12T14:58:56.345Z,15.00
2019-05-12T15:01:56.953Z,14.90
2019-05-12T15:04:32.448Z,14.80
2019-05-12T15:07:23.523Z,14.60
2019-05-12T15:10:11.075Z,14.60
2019-05-12T15:12:59.354Z,14.40
2019-05-12T15:15:50.026Z,14.50
2019-05-12T15:18:39.801Z,14.60
2019-05-12T15:21:31.156Z,14.70
2019-05-12T15:24:18.948Z,14.70
2019-05-12T15:27:06.800Z,14.80
2019-05-12T15:29:59.406Z,14.80
2019-05-12T15:32:45.347Z,14.60
2019-05-12T15:35:34.388Z,14.60
2019-05-12T15:38:24.395Z,14.70
2019-05-12T15:41:18.492Z,14.60
2019-05-12T15:44:03.356Z,14.40
2019-05-12T15:46:53.595Z,14.20
2019-05-12T15:49:44.107Z,14.20
2019-05-12T15:52:38.234Z,14.20
2019-05-12T15:55:25.596Z,14.00
2019-05-12T15:58:11.053Z,14.00
2019-05-12T16:00:58.848Z,14.10
2019-05-12T16:03:46.876Z,14.30
2019-05-12T16:06:35.125Z,14.20
2019-05-12T16:09:23.765Z,14.10
2019-05-12T16:12:19.890Z,14.20
2019-05-12T16:15:04.588Z,14.20
2019-05-12T16:17:54.038Z,14.10
2019-05-12T16:20:43.621Z,14.10
2019-05-12T16:23:31.239Z,14.00
2019-05-12T16:26:19.734Z,14.00
2019-05-12T16:29:08.079Z,13.80
2019-05-12T16:31:55.739Z,13.80
2019-05-12T16:34:48.718Z,13.60
2019-05-12T16:37:35.298Z,13.60
2019-05-12T16:40:24.412Z,13.50
2019-05-12T16:43:14.475Z,13.50
2019-05-12T16:46:04.410Z,13.40
2019-05-12T16:48:56.242Z,13.40
2019-05-12T16:51:43.849Z,13.40
2019-05-12T16:54:33.335Z,13.30
2019-05-12T16:57:21.552Z,13.20
2019-05-12T17:00:10.347Z,13.30
2019-05-12T17:02:58.506Z,13.20
2019-05-12T17:05:50.205Z,13.10
2019-05-12T17:08:36.293Z,13.10
2019-05-12T17:11:29.895Z,13.00
2019-05-12T17:14:15.391Z,12.90
2019-05-12T17:17:04.575Z,12.80
2019-05-12T17:19:54.060Z,12.70
2019-05-12T17:22:54.608Z,12.70
2019-05-12T17:25:34.447Z,12.70
2019-05-12T17:28:23.876Z,12.60
2019-05-12T17:31:13.134Z,12.50
2019-05-12T17:34:08.166Z,12.40
2019-05-12T17:36:56.063Z,12.30
2019-05-12T17:39:43.859Z,12.20
2019-05-12T17:42:33.485Z,12.20
2019-05-12T17:45:23.614Z,12.10
2019-05-12T17:48:14.295Z,12.00
2019-05-12T17:51:04.158Z,12.00
2019-05-12T17:53:54.013Z,11.90
2019-05-12T17:56:44.021Z,11.80
2019-05-12T17:59:33.415Z,11.70
2019-05-12T18:02:23.668Z,11.60
2019-05-12T18:05:15.946Z,11.60
2019-05-12T18:08:05.487Z,11.50
2019-05-12T18:10:55.188Z,11.50
2019-05-12T18:13:44.320Z,11.40
2019-05-12T18:16:34.035Z,11.40
2019-05-12T18:19:24.241Z,11.20
2019-05-12T18:22:14.256Z,11.20
2019-05-12T18:25:04.621Z,11.10
2019-05-12T18:27:54.228Z,11.00
2019-05-12T18:30:43.451Z,10.90
2019-05-12T18:33:34.855Z,10.80
2019-05-12T18:36:23.834Z,10.70
2019-05-12T18:39:15.261Z,10.60
2019-05-12T18:42:03.729Z,10.60
2019-05-12T18:44:54.609Z,10.40
2019-05-12T18:47:44.420Z,10.40
2019-05-12T18:50:34.325Z,10.30
2019-05-12T18:53:31.289Z,10.20
2019-05-12T18:56:19.781Z,10.10
2019-05-12T18:59:11.463Z,10.00
2019-05-12T19:01:58.587Z,9.90
2019-05-12T19:04:48.875Z,9.90
2019-05-12T19:07:39.972Z,9.90
2019-05-12T19:10:28.802Z,9.80
2019-05-12T19:13:17.814Z,9.70
2019-05-12T19:16:07.662Z,9.60
2019-05-12T19:18:57.535Z,9.50
2019-05-12T19:21:46.869Z,9.50
2019-05-12T19:24:36.662Z,9.40
2019-05-12T19:27:25.449Z,9.30
2019-05-12T19:30:19.211Z,9.30
2019-05-12T19:33:10.577Z,9.20
2019-05-12T19:36:04.344Z,9.10
2019-05-12T19:38:47.609Z,9.10
2019-05-12T19:41:38.121Z,9.00
2019-05-12T19:44:30.634Z,8.90
2019-05-12T19:47:21.234Z,8.80
2019-05-12T19:50:13.125Z,8.80
2019-05-12T19:53:00.134Z,8.70
2019-05-12T19:55:49.283Z,8.60
2019-05-12T19:58:38.194Z,8.60
2019-05-12T20:01:32.692Z,8.50
2019-05-12T20:04:29.681Z,8.40
2019-05-12T20:07:08.675Z,8.40
2019-05-12T20:10:00.633Z,8.30
2019-05-12T20:12:48.801Z,8.30
2019-05-12T20:15:41.228Z,8.10
2019-05-12T20:18:36.164Z,8.20
2019-05-12T20:21:25.579Z,8.10
2019-05-12T20:24:13.690Z,8.10
2019-05-12T20:27:04.054Z,8.00
2019-05-12T20:29:53.977Z,8.00
2019-05-12T20:32:43.566Z,7.90
2019-05-12T20:35:39.298Z,7.90
2019-05-12T20:38:33.745Z,7.90
2019-05-12T20:41:22.592Z,7.80
2019-05-12T20:44:09.932Z,7.80
2019-05-12T20:47:01.465Z,7.70
2019-05-12T20:49:50.970Z,7.60
2019-05-12T20:52:39.383Z,7.60
2019-05-12T20:55:34.999Z,7.50
2019-05-12T20:58:20.648Z,7.40
2019-05-12T21:01:09.613Z,7.40
2019-05-12T21:03:58.809Z,7.30
2019-05-12T21:06:48.647Z,7.30
2019-05-12T21:09:38.382Z,7.30
2019-05-12T21:12:26.998Z,7.20
2019-05-12T21:15:20.535Z,7.20
2019-05-12T21:18:07.651Z,7.10
2019-05-12T21:20:56.400Z,7.00
2019-05-12T21:23:53.495Z,7.10
2019-05-12T21:26:38.005Z,7.00
2019-05-12T21:29:29.863Z,6.90
2019-05-12T21:32:18.759Z,6.90
2019-05-12T21:35:19.327Z,6.90
2019-05-12T21:37:59.345Z,6.90
2019-05-12T21:40:48.911Z,6.90
2019-05-12T21:44:00.072Z,6.80
2019-05-12T21:47:01.003Z,6.70
2019-05-12T21:49:42.710Z,6.70
2019-05-12T21:52:37.265Z,6.70
2019-05-12T21:55:26.042Z,6.70
2019-05-12T21:58:15.332Z,6.60
2019-05-12T22:01:07.713Z,6.60
2019-05-12T22:04:01.962Z,6.60
2019-05-12T22:06:51.399Z,6.50
2019-05-12T22:09:41.675Z,6.50
2019-05-12T22:12:30.383Z,6.50
2019-05-12T22:15:28.432Z,6.50
2019-05-12T22:18:16.526Z,6.40
2019-05-12T22:21:07.021Z,6.40
2019-05-12T22:23:56.420Z,6.30
2019-05-12T22:26:46.712Z,6.30
2019-05-12T22:29:36.475Z,6.30
2019-05-12T22:32:29.492Z,6.30
2019-05-12T22:35:21.828Z,6.20
2019-05-12T22:38:15.276Z,6.20
2019-05-12T22:40:59.706Z,6.10
2019-05-12T22:43:49.772Z,6.10
2019-05-12T22:46:39.230Z,6.00
2019-05-12T22:49:28.521Z,6.10
2019-05-12T22:52:17.679Z,5.90
2019-05-12T22:55:07.726Z,5.90
2019-05-12T22:57:57.347Z,5.90
2019-05-12T23:00:51.392Z,5.90
2019-05-12T23:03:45.340Z,5.90
2019-05-12T23:06:35.899Z,5.90
2019-05-12T23:09:19.515Z,5.80
2019-05-12T23:12:09.594Z,5.80
2019-05-12T23:15:02.882Z,5.70
2019-05-12T23:17:49.854Z,5.70
2019-05-12T23:20:39.109Z,5.80
2019-05-12T23:23:28.659Z,5.80
2019-05-12T23:26:18.032Z,5.70
2019-05-12T23:29:07.178Z,5.70
2019-05-12T23:32:00.665Z,5.60
2019-05-12T23:34:56.555Z,5.50
2019-05-12T23:37:40.314Z,5.50
2019-05-12T23:40:29.943Z,5.50
2019-05-12T23:43:19.277Z,5.50
2019-05-12T23:46:08.599Z,5.50
2019-05-12T23:48:57.609Z,5.40
2019-05-12T23:51:47.079Z,5.40
2019-05-12T23:54:36.059Z,5.40
2019-05-12T23:57:25.227Z,5.30
